Time,TemperatureF,DewpointF,PressureIn,WindDirection,WindDirectionDegrees,WindSpeedMPH,WindSpeedGustMPH,Humidity,HourlyPrecipIn,Conditions,Clouds,dailyrainin,SoftwareType,DateUTC
2013-08-18 00:02:00,79.0,66.6,30.12,North,-999,0.0,0.0,66,0.00,,,-99.99,FreeWX 2.05,2013-08-18 04:02:00,
2013-08-18 00:12:00,79.0,66.6,30.12,North,-999,0.0,0.0,66,0.00,,,-99.99,FreeWX 2.05,2013-08-18 04:12:00,
2013-08-18 00:22:00,79.0,67.1,30.12,North,-999,0.0,0.0,67,0.00,,,-99.99,FreeWX 2.05,2013-08-18 04:22:00,
2013-08-18 00:32:00,79.2,67.6,30.12,North,-999,0.0,0.0,68,0.00,,,-99.99,FreeWX 2.05,2013-08-18 04:32:00,
2013-08-18 00:42:00,79.2,67.6,30.12,North,-999,0.0,0.0,68,0.00,,,-99.99,FreeWX 2.05,2013-08-18 04:42:00,
2013-08-18 00:52:00,79.2,68.2,30.12,North,-999,0.0,0.0,69,0.00,,,-99.99,FreeWX 2.05,2013-08-18 04:52:00,
2013-08-18 01:02:00,79.2,68.5,30.12,North,-999,0.0,0.0,70,0.00,,,-99.99,FreeWX 2.05,2013-08-18 05:02:00,
2013-08-18 01:12:00,79.2,68.9,30.09,North,-999,0.0,0.0,71,0.00,,,-99.99,FreeWX 2.05,2013-08-18 05:12:00,
2013-08-18 01:22:00,79.0,69.6,30.09,North,-999,0.0,0.0,73,0.00,,,-99.99,FreeWX 2.05,2013-08-18 05:22:00,
2013-08-18 01:32:00,79.0,69.6,30.09,North,-999,0.0,0.0,73,0.00,,,-99.99,FreeWX 2.05,2013-08-18 05:32:00,
2013-08-18 01:42:00,79.0,70.0,30.09,North,-999,0.0,0.0,74,0.00,,,-99.99,FreeWX 2.05,2013-08-18 05:42:00,
2013-08-18 01:52:00,79.0,70.0,30.09,North,-999,0.0,0.0,74,0.00,,,-99.99,FreeWX 2.05,2013-08-18 05:52:00,
2013-08-18 02:02:00,79.2,70.5,30.09,North,-999,0.0,0.0,75,0.00,,,-99.99,FreeWX 2.05,2013-08-18 06:02:00,
2013-08-18 02:12:00,79.2,70.5,30.09,North,-999,0.0,0.0,75,0.00,,,-99.99,FreeWX 2.05,2013-08-18 06:12:00,
2013-08-18 02:22:00,79.2,70.5,30.09,North,-999,0.0,0.0,75,0.00,,,-99.99,FreeWX 2.05,2013-08-18 06:22:00,
2013-08-18 02:32:00,79.0,70.7,30.09,North,-999,0.0,0.0,76,0.00,,,-99.99,FreeWX 2.05,2013-08-18 06:32:00,
2013-08-18 02:42:00,78.8,70.5,30.09,North,-999,0.0,0.0,76,0.00,,,-99.99,FreeWX 2.05,2013-08-18 06:42:00,
2013-08-18 02:52:00,78.8,70.5,30.09,North,-999,0.0,0.0,76,0.00,,,-99.99,FreeWX 2.05,2013-08-18 06:52:00,
2013-08-18 03:02:00,78.6,70.7,30.09,North,-999,0.0,0.0,77,0.00,,,-99.99,FreeWX 2.05,2013-08-18 07:02:00,
2013-08-18 03:12:00,78.6,70.7,30.06,North,-999,0.0,0.0,77,0.00,,,-99.99,FreeWX 2.05,2013-08-18 07:12:00,
2013-08-18 03:22:00,78.8,70.9,30.06,North,-999,0.0,0.0,77,0.00,,,-99.99,FreeWX 2.05,2013-08-18 07:22:00,
2013-08-18 03:32:00,79.0,71.6,30.06,North,-999,0.0,4.0,78,0.00,,,-99.99,FreeWX 2.05,2013-08-18 07:32:00,
2013-08-18 03:42:00,79.3,72.3,30.06,North,-999,0.0,3.1,79,0.00,,,-99.99,FreeWX 2.05,2013-08-18 07:42:00,
2013-08-18 03:52:00,79.3,72.3,30.06,West,265,1.0,4.0,79,0.00,,,-99.99,FreeWX 2.05,2013-08-18 07:52:00,
2013-08-18 04:02:00,79.3,72.3,30.06,North,-999,0.0,3.6,79,0.00,,,-99.99,FreeWX 2.05,2013-08-18 08:02:00,
2013-08-18 04:12:00,79.3,72.3,30.06,North,-999,0.0,3.1,79,0.00,,,-99.99,FreeWX 2.05,2013-08-18 08:12:00,
2013-08-18 04:22:00,79.5,72.5,30.06,WSW,255,1.0,4.0,79,0.00,,,-99.99,FreeWX 2.05,2013-08-18 08:22:00,
2013-08-18 04:32:00,79.3,72.7,30.06,North,-999,0.0,3.6,80,0.00,,,-99.99,FreeWX 2.05,2013-08-18 08:32:00,
2013-08-18 04:42:00,79.3,72.7,30.06,West,266,1.0,4.5,80,0.00,,,-99.99,FreeWX 2.05,2013-08-18 08:42:00,
2013-08-18 04:52:00,79.3,72.7,30.06,North,-999,0.0,4.0,80,0.00,,,-99.99,FreeWX 2.05,2013-08-18 08:52:00,
2013-08-18 05:02:00,79.3,72.7,30.06,North,-999,0.0,3.6,80,0.00,,,-99.99,FreeWX 2.05,2013-08-18 09:02:00,
2013-08-18 05:12:00,79.2,72.5,30.06,North,-999,0.0,3.1,80,0.00,,,-99.99,FreeWX 2.05,2013-08-18 09:12:00,
2013-08-18 05:22:00,79.3,72.7,30.06,North,-999,0.0,3.1,80,0.00,,,-99.99,FreeWX 2.05,2013-08-18 09:22:00,
2013-08-18 05:32:00,79.2,72.5,30.06,North,-999,0.0,3.6,80,0.00,,,-99.99,FreeWX 2.05,2013-08-18 09:32:00,
2013-08-18 05:42:00,79.2,72.5,30.06,North,-999,0.0,3.1,80,0.00,,,-99.99,FreeWX 2.05,2013-08-18 09:42:00,
2013-08-18 05:52:00,79.2,72.5,30.06,North,-999,0.0,0.0,80,0.00,,,-99.99,FreeWX 2.05,2013-08-18 09:52:00,
2013-08-18 06:02:00,79.2,72.5,30.06,North,-999,0.0,3.1,80,0.00,,,-99.99,FreeWX 2.05,2013-08-18 10:02:00,
2013-08-18 06:12:00,79.2,72.9,30.06,North,-999,0.0,3.1,81,0.00,,,-99.99,FreeWX 2.05,2013-08-18 10:12:00,
2013-08-18 06:22:00,79.0,72.7,30.06,North,-999,0.0,3.1,81,0.00,,,-99.99,FreeWX 2.05,2013-08-18 10:22:00,
2013-08-18 06:32:00,79.0,72.7,30.06,North,-999,0.0,0.0,81,0.00,,,-99.99,FreeWX 2.05,2013-08-18 10:32:00,
2013-08-18 06:42:00,78.8,72.5,30.06,North,-999,0.0,3.6,81,0.00,,,-99.99,FreeWX 2.05,2013-08-18 10:42:00,
2013-08-18 06:52:00,78.8,72.5,30.09,North,-999,0.0,3.1,81,0.00,,,-99.99,FreeWX 2.05,2013-08-18 10:52:00,
2013-08-18 07:02:00,78.8,72.9,30.09,North,-999,0.0,3.6,82,0.00,,,-99.99,FreeWX 2.05,2013-08-18 11:02:00,
2013-08-18 07:12:00,78.8,72.9,30.06,North,-999,0.0,3.1,82,0.00,,,-99.99,FreeWX 2.05,2013-08-18 11:12:00,
2013-08-18 07:22:00,78.8,72.9,30.06,North,-999,0.0,0.0,82,0.00,,,-99.99,FreeWX 2.05,2013-08-18 11:22:00,
2013-08-18 07:32:00,79.0,73.0,30.06,North,-999,0.0,3.1,82,0.00,,,-99.99,FreeWX 2.05,2013-08-18 11:32:00,
2013-08-18 07:42:00,79.0,73.0,30.06,North,-999,0.0,2.7,82,0.00,,,-99.99,FreeWX 2.05,2013-08-18 11:42:00,
2013-08-18 07:52:00,79.2,73.6,30.06,North,-999,0.0,2.7,83,0.00,,,-99.99,FreeWX 2.05,2013-08-18 11:52:00,
2013-08-18 08:02:00,79.5,73.9,30.06,North,-999,0.0,3.6,83,0.00,,,-99.99,FreeWX 2.05,2013-08-18 12:02:00,
2013-08-18 08:12:00,79.9,74.3,30.09,West,261,1.0,4.0,83,0.00,,,-99.99,FreeWX 2.05,2013-08-18 12:12:00,
2013-08-18 08:22:00,80.2,74.7,30.09,West,259,1.0,4.0,83,0.00,,,-99.99,FreeWX 2.05,2013-08-18 12:22:00,
2013-08-18 08:32:00,80.4,74.8,30.09,West,276,2.0,4.0,83,0.00,,,-99.99,FreeWX 2.05,2013-08-18 12:32:00,
2013-08-18 08:42:00,81.0,75.4,30.09,West,272,1.0,4.9,83,0.00,,,-99.99,FreeWX 2.05,2013-08-18 12:42:00,
2013-08-18 08:52:00,81.0,74.8,30.09,West,275,2.0,4.9,82,0.00,,,-99.99,FreeWX 2.05,2013-08-18 12:52:00,
2013-08-18 09:02:00,80.8,74.3,30.09,West,275,2.0,5.4,81,0.00,,,-99.99,FreeWX 2.05,2013-08-18 13:02:00,
2013-08-18 09:12:00,80.6,73.8,30.09,West,271,3.0,4.9,80,0.00,,,-99.99,FreeWX 2.05,2013-08-18 13:12:00,
2013-08-18 09:22:00,81.1,73.9,30.09,West,271,2.0,4.5,79,0.00,,,-99.99,FreeWX 2.05,2013-08-18 13:22:00,
2013-08-18 09:32:00,81.3,72.7,30.09,WSW,257,3.0,5.4,75,0.00,,,-99.99,FreeWX 2.05,2013-08-18 13:32:00,
2013-08-18 09:42:00,82.4,73.2,30.09,West,274,2.0,4.5,74,0.00,,,-99.99,FreeWX 2.05,2013-08-18 13:42:00,
2013-08-18 09:52:00,82.4,71.2,30.09,WNW,283,2.0,5.4,69,0.00,,,-99.99,FreeWX 2.05,2013-08-18 13:52:00,
2013-08-18 10:02:00,82.2,69.6,30.09,WNW,283,2.0,4.5,66,0.00,,,-99.99,FreeWX 2.05,2013-08-18 14:02:00,
2013-08-18 10:12:00,82.2,68.4,30.09,West,270,2.0,4.5,63,0.00,,,-99.99,FreeWX 2.05,2013-08-18 14:12:00,
2013-08-18 10:22:00,82.8,68.9,30.09,WNW,289,1.0,5.4,63,0.00,,,-99.99,FreeWX 2.05,2013-08-18 14:22:00,
2013-08-18 10:32:00,83.5,68.5,30.09,West,266,2.0,4.9,61,0.00,,,-99.99,FreeWX 2.05,2013-08-18 14:32:00,
2013-08-18 10:42:00,83.8,68.0,30.09,West,262,2.0,5.8,59,0.00,,,-99.99,FreeWX 2.05,2013-08-18 14:42:00,
2013-08-18 10:52:00,84.2,67.3,30.12,West,261,2.0,4.9,57,0.00,,,-99.99,FreeWX 2.05,2013-08-18 14:52:00,
2013-08-18 11:02:00,84.6,66.0,30.12,West,260,2.0,4.9,54,0.00,,,-99.99,FreeWX 2.05,2013-08-18 15:02:00,
2013-08-18 11:12:00,84.9,65.8,30.09,West,265,2.0,5.4,53,0.00,,,-99.99,FreeWX 2.05,2013-08-18 15:12:00,
2013-08-18 11:22:00,85.1,63.7,30.09,West,264,2.0,5.4,49,0.00,,,-99.99,FreeWX 2.05,2013-08-18 15:22:00,
2013-08-18 11:32:00,85.5,63.5,30.09,West,270,1.0,5.8,48,0.00,,,-99.99,FreeWX 2.05,2013-08-18 15:32:00,
2013-08-18 11:42:00,86.0,61.5,30.12,West,265,1.0,5.4,44,0.00,,,-99.99,FreeWX 2.05,2013-08-18 15:42:00,
2013-08-18 11:52:00,86.5,59.4,30.12,West,267,1.0,4.9,40,0.00,,,-99.99,FreeWX 2.05,2013-08-18 15:52:00,
2013-08-18 12:02:00,86.9,56.7,30.12,West,270,1.0,5.8,36,0.00,,,-99.99,FreeWX 2.05,2013-08-18 16:02:00,
2013-08-18 12:12:00,87.4,54.0,30.12,West,272,1.0,5.8,32,0.00,,,-99.99,FreeWX 2.05,2013-08-18 16:12:00,
2013-08-18 12:22:00,87.8,52.5,30.09,West,271,3.0,4.9,30,0.00,,,-99.99,FreeWX 2.05,2013-08-18 16:22:00,
2013-08-18 12:32:00,87.8,52.5,30.09,West,263,2.0,5.4,30,0.00,,,-99.99,FreeWX 2.05,2013-08-18 16:32:00,
2013-08-18 12:42:00,88.5,53.1,30.09,West,268,2.0,4.9,30,0.00,,,-99.99,FreeWX 2.05,2013-08-18 16:42:00,
2013-08-18 12:52:00,87.8,52.5,30.09,West,263,2.0,4.5,30,0.00,,,-99.99,FreeWX 2.05,2013-08-18 16:52:00,
2013-08-18 13:02:00,88.7,53.2,30.09,West,267,2.0,5.8,30,0.00,,,-99.99,FreeWX 2.05,2013-08-18 17:02:00,
2013-08-18 13:12:00,88.7,51.4,30.09,West,265,2.0,5.8,28,0.00,,,-99.99,FreeWX 2.05,2013-08-18 17:12:00,
2013-08-18 13:22:00,88.9,51.4,30.09,West,267,2.0,4.5,28,0.00,,,-99.99,FreeWX 2.05,2013-08-18 17:22:00,
2013-08-18 13:32:00,88.7,51.4,30.09,West,259,1.0,5.4,28,0.00,,,-99.99,FreeWX 2.05,2013-08-18 17:32:00,
2013-08-18 13:42:00,88.5,51.3,30.09,West,267,2.0,4.5,28,0.00,,,-99.99,FreeWX 2.05,2013-08-18 17:42:00,
2013-08-18 13:52:00,88.9,50.5,30.06,WSW,258,2.0,4.5,27,0.00,,,-99.99,FreeWX 2.05,2013-08-18 17:52:00,
2013-08-18 14:02:00,89.2,49.8,30.06,West,264,2.0,4.9,26,0.00,,,-99.99,FreeWX 2.05,2013-08-18 18:02:00,
2013-08-18 14:12:00,89.4,50.0,30.06,West,266,1.0,4.5,26,0.00,,,-99.99,FreeWX 2.05,2013-08-18 18:12:00,
2013-08-18 14:22:00,88.9,50.5,30.06,West,270,2.0,4.9,27,0.00,,,-99.99,FreeWX 2.05,2013-08-18 18:22:00,
2013-08-18 14:32:00,88.5,49.3,30.06,West,266,2.0,5.4,26,0.00,,,-99.99,FreeWX 2.05,2013-08-18 18:32:00,
2013-08-18 14:42:00,88.2,50.9,30.06,West,271,1.0,4.5,28,0.00,,,-99.99,FreeWX 2.05,2013-08-18 18:42:00,
2013-08-18 14:52:00,88.7,51.4,30.06,West,271,2.0,4.9,28,0.00,,,-99.99,FreeWX 2.05,2013-08-18 18:52:00,
2013-08-18 15:02:00,90.5,52.0,30.06,WNW,288,2.0,5.4,27,0.00,,,-99.99,FreeWX 2.05,2013-08-18 19:02:00,
2013-08-18 15:12:00,90.7,50.0,30.06,North,-999,0.0,0.0,25,0.00,,,-99.99,FreeWX 2.05,2013-08-18 19:12:00,
2013-08-18 15:22:00,89.1,50.7,30.06,North,-999,0.0,3.6,27,0.00,,,-99.99,FreeWX 2.05,2013-08-18 19:22:00,
2013-08-18 15:32:00,86.9,50.7,30.06,WSW,253,3.0,5.8,29,0.00,,,-99.99,FreeWX 2.05,2013-08-18 19:32:00,
2013-08-18 15:42:00,85.8,53.4,30.06,WSW,250,2.0,4.9,33,0.00,,,-99.99,FreeWX 2.05,2013-08-18 19:42:00,
2013-08-18 15:52:00,84.2,55.8,30.03,WSW,247,2.0,4.5,38,0.00,,,-99.99,FreeWX 2.05,2013-08-18 19:52:00,
2013-08-18 16:02:00,83.8,56.1,30.03,North,-999,0.0,4.5,39,0.00,,,-99.99,FreeWX 2.05,2013-08-18 20:02:00,
2013-08-18 16:12:00,83.8,56.1,30.06,North,-999,0.0,3.1,39,0.00,,,-99.99,FreeWX 2.05,2013-08-18 20:12:00,
2013-08-18 16:22:00,84.0,56.3,30.06,North,-999,0.0,4.0,39,0.00,,,-99.99,FreeWX 2.05,2013-08-18 20:22:00,
2013-08-18 16:32:00,84.6,56.8,30.06,NE,55,1.0,4.5,39,0.00,,,-99.99,FreeWX 2.05,2013-08-18 20:32:00,
2013-08-18 16:42:00,84.9,57.2,30.06,ENE,68,3.0,8.3,39,0.00,,,-99.99,FreeWX 2.05,2013-08-18 20:42:00,
2013-08-18 16:52:00,84.6,56.8,30.06,ESE,123,4.0,7.8,39,0.00,,,-99.99,FreeWX 2.05,2013-08-18 20:52:00,
2013-08-18 17:02:00,83.8,56.1,30.06,SSE,159,1.0,5.8,39,0.00,,,-99.99,FreeWX 2.05,2013-08-18 21:02:00,
2013-08-18 17:12:00,83.7,56.1,30.06,North,-999,0.0,5.4,39,0.00,,,-99.99,FreeWX 2.05,2013-08-18 21:12:00,
2013-08-18 17:22:00,83.5,56.7,30.06,North,-999,0.0,4.9,40,0.00,,,-99.99,FreeWX 2.05,2013-08-18 21:22:00,
2013-08-18 17:32:00,83.5,57.2,30.06,North,-999,0.0,0.0,41,0.00,,,-99.99,FreeWX 2.05,2013-08-18 21:32:00,
2013-08-18 17:42:00,83.1,57.6,30.06,North,-999,0.0,4.0,42,0.00,,,-99.99,FreeWX 2.05,2013-08-18 21:42:00,
2013-08-18 17:52:00,82.6,57.7,30.06,North,-999,0.0,3.6,43,0.00,,,-99.99,FreeWX 2.05,2013-08-18 21:52:00,
2013-08-18 18:02:00,82.4,58.3,30.06,North,-999,0.0,0.0,44,0.00,,,-99.99,FreeWX 2.05,2013-08-18 22:02:00,
2013-08-18 18:12:00,82.2,58.8,30.06,North,-999,0.0,0.0,45,0.00,,,-99.99,FreeWX 2.05,2013-08-18 22:12:00,
2013-08-18 18:22:00,81.7,59.5,30.09,North,-999,0.0,0.0,47,0.00,,,-99.99,FreeWX 2.05,2013-08-18 22:22:00,
2013-08-18 18:32:00,81.1,60.6,30.09,North,-999,0.0,0.0,50,0.00,,,-99.99,FreeWX 2.05,2013-08-18 22:32:00,
2013-08-18 18:42:00,80.8,62.6,30.09,North,-999,0.0,2.7,54,0.00,,,-99.99,FreeWX 2.05,2013-08-18 22:42:00,
2013-08-18 18:52:00,80.4,63.3,30.09,North,-999,0.0,0.0,56,0.00,,,-99.99,FreeWX 2.05,2013-08-18 22:52:00,
2013-08-18 19:02:00,80.2,64.0,30.09,North,-999,0.0,0.0,58,0.00,,,-99.99,FreeWX 2.05,2013-08-18 23:02:00,
2013-08-18 19:12:00,79.9,66.6,30.06,North,-999,0.0,3.1,64,0.00,,,-99.99,FreeWX 2.05,2013-08-18 23:12:00,
2013-08-18 19:22:00,79.2,67.3,30.09,WSW,256,1.0,4.0,67,0.04,,,-99.99,FreeWX 2.05,2013-08-18 23:22:00,
2013-08-18 19:32:00,78.4,66.9,30.09,WSW,254,2.0,5.4,68,0.04,,,-99.99,FreeWX 2.05,2013-08-18 23:32:00,
2013-08-18 19:42:00,77.9,66.9,30.09,West,270,1.0,3.6,69,0.04,,,-99.99,FreeWX 2.05,2013-08-18 23:42:00,
2013-08-18 19:52:00,77.9,67.6,30.09,North,-999,0.0,2.7,71,0.04,,,-99.99,FreeWX 2.05,2013-08-18 23:52:00,
2013-08-18 20:02:00,78.1,67.8,30.09,North,-999,0.0,0.0,71,0.04,,,-99.99,FreeWX 2.05,2013-08-19 00:02:00,
2013-08-18 20:12:00,78.1,67.8,30.12,North,-999,0.0,0.0,71,0.04,,,-99.99,FreeWX 2.05,2013-08-19 00:12:00,
2013-08-18 20:22:00,78.3,68.0,30.12,North,-999,0.0,3.6,71,0.04,,,-99.99,FreeWX 2.05,2013-08-19 00:22:00,
2013-08-18 20:32:00,78.3,68.0,30.12,North,-999,0.0,3.6,71,0.08,,,-99.99,FreeWX 2.05,2013-08-19 00:32:00,
2013-08-18 20:42:00,78.1,67.8,30.09,North,-999,0.0,0.0,71,0.08,,,-99.99,FreeWX 2.05,2013-08-19 00:42:00,
2013-08-18 20:52:00,78.3,68.5,30.09,North,-999,0.0,0.0,72,0.08,,,-99.99,FreeWX 2.05,2013-08-19 00:52:00,
2013-08-18 21:02:00,78.1,68.4,30.09,North,-999,0.0,0.0,72,0.12,,,-99.99,FreeWX 2.05,2013-08-19 01:02:00,
2013-08-18 21:12:00,78.1,68.7,30.09,North,-999,0.0,0.0,73,0.12,,,-99.99,FreeWX 2.05,2013-08-19 01:12:00,
2013-08-18 21:22:00,77.9,68.5,30.09,North,-999,0.0,2.7,73,0.08,,,-99.99,FreeWX 2.05,2013-08-19 01:22:00,
2013-08-18 21:32:00,77.9,68.9,30.09,North,-999,0.0,0.0,74,0.04,,,-99.99,FreeWX 2.05,2013-08-19 01:32:00,
2013-08-18 21:42:00,77.9,68.9,30.09,North,-999,0.0,0.0,74,0.04,,,-99.99,FreeWX 2.05,2013-08-19 01:42:00,
2013-08-18 21:53:00,77.7,69.1,30.09,North,-999,0.0,0.0,75,0.04,,,-99.99,FreeWX 2.05,2013-08-19 01:53:00,
2013-08-18 22:03:00,77.9,69.3,30.09,North,-999,0.0,0.0,75,0.00,,,-99.99,FreeWX 2.05,2013-08-19 02:03:00,
2013-08-18 22:13:00,77.9,69.3,30.09,North,-999,0.0,0.0,75,0.00,,,-99.99,FreeWX 2.05,2013-08-19 02:13:00,
2013-08-18 22:23:00,77.7,69.6,30.12,North,-999,0.0,2.7,76,0.00,,,-99.99,FreeWX 2.05,2013-08-19 02:23:00,
2013-08-18 22:33:00,77.7,69.6,30.12,North,-999,0.0,0.0,76,0.00,,,-99.99,FreeWX 2.05,2013-08-19 02:33:00,
2013-08-18 22:43:00,77.7,69.6,30.12,North,-999,0.0,0.0,76,0.00,,,-99.99,FreeWX 2.05,2013-08-19 02:43:00,
2013-08-18 22:53:00,77.7,69.6,30.12,North,-999,0.0,0.0,76,0.00,,,-99.99,FreeWX 2.05,2013-08-19 02:53:00,
2013-08-18 23:03:00,77.7,70.0,30.12,ESE,110,1.0,3.6,77,0.00,,,-99.99,FreeWX 2.05,2013-08-19 03:03:00,
2013-08-18 23:13:00,77.7,70.0,30.12,NNE,23,1.0,4.0,77,0.00,,,-99.99,FreeWX 2.05,2013-08-19 03:13:00,
2013-08-18 23:23:00,77.5,69.8,30.12,North,-999,0.0,3.6,77,0.00,,,-99.99,FreeWX 2.05,2013-08-19 03:23:00,
2013-08-18 23:33:00,77.5,69.8,30.12,North,-999,0.0,0.0,77,0.00,,,-99.99,FreeWX 2.05,2013-08-19 03:33:00,
2013-08-18 23:43:00,77.5,70.2,30.12,North,-999,0.0,0.0,78,0.00,,,-99.99,FreeWX 2.05,2013-08-19 03:43:00,
2013-08-18 23:53:00,77.4,70.0,30.09,North,-999,0.0,0.0,78,0.00,,,-99.99,FreeWX 2.05,2013-08-19 03:53:00,